sensor_id;sensor_type;location;lat;lon;timestamp;P1;durP1;ratioP1;P2;durP2;ratioP2
15946;SDS011;8072;52.554;7.966;2023-04-30T00:00:03;8.20;;;3.03;;
15946;SDS011;8072;52.554;7.966;2023-04-30T00:02:34;6.53;;;3.13;;
15946;SDS011;8072;52.554;7.966;2023-04-30T00:05:01;6.23;;;3.10;;
15946;SDS011;8072;52.554;7.966;2023-04-30T00:07:26;6.47;;;2.70;;
15946;SDS011;8072;52.554;7.966;2023-04-30T00:09:52;6.40;;;3.23;;
15946;SDS011;8072;52.554;7.966;2023-04-30T00:12:18;6.57;;;3.10;;
15946;SDS011;8072;52.554;7.966;2023-04-30T00:14:44;9.47;;;3.63;;
15946;SDS011;8072;52.554;7.966;2023-04-30T00:17:10;11.53;;;2.90;;
15946;SDS011;8072;52.554;7.966;2023-04-30T00:19:35;5.63;;;2.90;;
15946;SDS011;8072;52.554;7.966;2023-04-30T00:22:01;6.60;;;3.00;;
15946;SDS011;8072;52.554;7.966;2023-04-30T00:24:27;5.17;;;3.03;;
15946;SDS011;8072;52.554;7.966;2023-04-30T00:26:53;7.67;;;3.43;;
15946;SDS011;8072;52.554;7.966;2023-04-30T00:29:19;6.93;;;3.10;;
15946;SDS011;8072;52.554;7.966;2023-04-30T00:31:45;6.80;;;2.93;;
15946;SDS011;8072;52.554;7.966;2023-04-30T00:34:11;7.43;;;3.53;;
15946;SDS011;8072;52.554;7.966;2023-04-30T00:36:36;5.83;;;3.33;;
15946;SDS011;8072;52.554;7.966;2023-04-30T00:39:04;7.97;;;3.13;;
15946;SDS011;8072;52.554;7.966;2023-04-30T00:41:29;3.30;;;2.83;;
15946;SDS011;8072;52.554;7.966;2023-04-30T00:43:56;4.90;;;2.90;;
15946;SDS011;8072;52.554;7.966;2023-04-30T00:46:22;6.30;;;3.50;;
15946;SDS011;8072;52.554;7.966;2023-04-30T00:48:48;4.57;;;3.20;;
15946;SDS011;8072;52.554;7.966;2023-04-30T00:51:15;6.07;;;3.23;;
15946;SDS011;8072;52.554;7.966;2023-04-30T00:53:40;6.30;;;3.80;;
15946;SDS011;8072;52.554;7.966;2023-04-30T00:56:07;6.07;;;3.40;;
15946;SDS011;8072;52.554;7.966;2023-04-30T00:58:35;7.33;;;3.47;;
15946;SDS011;8072;52.554;7.966;2023-04-30T01:01:01;3.60;;;3.20;;
15946;SDS011;8072;52.554;7.966;2023-04-30T01:03:28;6.23;;;3.60;;
15946;SDS011;8072;52.554;7.966;2023-04-30T01:05:54;6.13;;;3.80;;
15946;SDS011;8072;52.554;7.966;2023-04-30T01:08:20;6.17;;;3.50;;
15946;SDS011;8072;52.554;7.966;2023-04-30T01:10:58;6.07;;;3.53;;
15946;SDS011;8072;52.554;7.966;2023-04-30T01:13:29;8.57;;;3.27;;
15946;SDS011;8072;52.554;7.966;2023-04-30T01:16:24;3.97;;;3.43;;
15946;SDS011;8072;52.554;7.966;2023-04-30T01:18:58;4.80;;;3.40;;
15946;SDS011;8072;52.554;7.966;2023-04-30T01:21:27;5.23;;;3.63;;
15946;SDS011;8072;52.554;7.966;2023-04-30T01:30:18;6.07;;;3.00;;
15946;SDS011;8072;52.554;7.966;2023-04-30T01:32:45;5.53;;;3.70;;
15946;SDS011;8072;52.554;7.966;2023-04-30T01:35:11;4.57;;;3.33;;
15946;SDS011;8072;52.554;7.966;2023-04-30T01:43:08;8.47;;;3.43;;
15946;SDS011;8072;52.554;7.966;2023-04-30T01:51:45;4.63;;;3.67;;
15946;SDS011;8072;52.554;7.966;2023-04-30T01:54:18;5.77;;;3.90;;
15946;SDS011;8072;52.554;7.966;2023-04-30T01:56:56;3.87;;;3.47;;
15946;SDS011;8072;52.554;7.966;2023-04-30T01:59:34;6.17;;;3.77;;
15946;SDS011;8072;52.554;7.966;2023-04-30T02:02:02;7.67;;;3.97;;
15946;SDS011;8072;52.554;7.966;2023-04-30T02:04:28;8.73;;;4.30;;
15946;SDS011;8072;52.554;7.966;2023-04-30T02:06:54;6.07;;;4.07;;
15946;SDS011;8072;52.554;7.966;2023-04-30T02:09:20;5.07;;;3.97;;
15946;SDS011;8072;52.554;7.966;2023-04-30T02:11:49;8.77;;;4.10;;
15946;SDS011;8072;52.554;7.966;2023-04-30T02:14:15;7.03;;;3.90;;
15946;SDS011;8072;52.554;7.966;2023-04-30T02:16:41;5.53;;;3.60;;
15946;SDS011;8072;52.554;7.966;2023-04-30T02:19:07;5.30;;;3.73;;
15946;SDS011;8072;52.554;7.966;2023-04-30T02:21:33;5.03;;;3.83;;
15946;SDS011;8072;52.554;7.966;2023-04-30T02:23:59;7.37;;;4.60;;
15946;SDS011;8072;52.554;7.966;2023-04-30T02:26:24;6.33;;;4.60;;
15946;SDS011;8072;52.554;7.966;2023-04-30T02:28:51;6.27;;;4.07;;
15946;SDS011;8072;52.554;7.966;2023-04-30T02:31:18;7.10;;;4.10;;
15946;SDS011;8072;52.554;7.966;2023-04-30T02:33:44;7.50;;;4.17;;
15946;SDS011;8072;52.554;7.966;2023-04-30T02:36:11;7.20;;;3.90;;
15946;SDS011;8072;52.554;7.966;2023-04-30T02:38:37;7.00;;;4.60;;
15946;SDS011;8072;52.554;7.966;2023-04-30T02:41:02;9.13;;;5.00;;
15946;SDS011;8072;52.554;7.966;2023-04-30T02:43:28;8.23;;;4.37;;
15946;SDS011;8072;52.554;7.966;2023-04-30T02:45:54;6.13;;;4.33;;
15946;SDS011;8072;52.554;7.966;2023-04-30T02:48:21;6.07;;;3.90;;
15946;SDS011;8072;52.554;7.966;2023-04-30T02:50:47;5.53;;;4.47;;
15946;SDS011;8072;52.554;7.966;2023-04-30T02:53:13;7.50;;;4.50;;
15946;SDS011;8072;52.554;7.966;2023-04-30T02:55:39;6.57;;;4.00;;
15946;SDS011;8072;52.554;7.966;2023-04-30T02:58:04;6.30;;;3.80;;
15946;SDS011;8072;52.554;7.966;2023-04-30T03:00:30;4.80;;;4.07;;
15946;SDS011;8072;52.554;7.966;2023-04-30T03:02:56;6.00;;;4.27;;
15946;SDS011;8072;52.554;7.966;2023-04-30T03:05:22;7.97;;;4.70;;
15946;SDS011;8072;52.554;7.966;2023-04-30T03:07:48;6.40;;;4.40;;
15946;SDS011;8072;52.554;7.966;2023-04-30T03:10:14;4.97;;;4.27;;
15946;SDS011;8072;52.554;7.966;2023-04-30T03:12:40;5.30;;;4.50;;
15946;SDS011;8072;52.554;7.966;2023-04-30T03:15:06;6.20;;;4.53;;
15946;SDS011;8072;52.554;7.966;2023-04-30T03:17:32;6.20;;;4.03;;
15946;SDS011;8072;52.554;7.966;2023-04-30T03:19:58;4.67;;;4.07;;
15946;SDS011;8072;52.554;7.966;2023-04-30T03:22:26;5.33;;;4.00;;
15946;SDS011;8072;52.554;7.966;2023-04-30T03:24:52;5.37;;;3.90;;
15946;SDS011;8072;52.554;7.966;2023-04-30T03:27:17;5.07;;;4.50;;
15946;SDS011;8072;52.554;7.966;2023-04-30T03:29:43;6.57;;;4.10;;
15946;SDS011;8072;52.554;7.966;2023-04-30T03:32:09;4.97;;;3.87;;
15946;SDS011;8072;52.554;7.966;2023-04-30T03:34:35;7.17;;;4.63;;
15946;SDS011;8072;52.554;7.966;2023-04-30T03:37:01;4.33;;;3.50;;
15946;SDS011;8072;52.554;7.966;2023-04-30T03:39:28;7.63;;;4.30;;
15946;SDS011;8072;52.554;7.966;2023-04-30T03:41:53;7.17;;;4.73;;
15946;SDS011;8072;52.554;7.966;2023-04-30T03:44:19;7.77;;;5.03;;
15946;SDS011;8072;52.554;7.966;2023-04-30T03:46:45;4.53;;;4.10;;
15946;SDS011;8072;52.554;7.966;2023-04-30T03:49:11;6.53;;;4.77;;
15946;SDS011;8072;52.554;7.966;2023-04-30T03:51:37;6.10;;;4.33;;
15946;SDS011;8072;52.554;7.966;2023-04-30T03:54:05;7.30;;;4.50;;
15946;SDS011;8072;52.554;7.966;2023-04-30T03:56:32;6.50;;;4.80;;
15946;SDS011;8072;52.554;7.966;2023-04-30T03:58:59;5.90;;;4.37;;
15946;SDS011;8072;52.554;7.966;2023-04-30T04:01:25;7.40;;;4.67;;
15946;SDS011;8072;52.554;7.966;2023-04-30T04:03:52;7.10;;;4.60;;
15946;SDS011;8072;52.554;7.966;2023-04-30T04:06:18;6.33;;;3.87;;
15946;SDS011;8072;52.554;7.966;2023-04-30T04:08:44;6.57;;;4.50;;
15946;SDS011;8072;52.554;7.966;2023-04-30T04:11:11;7.93;;;4.50;;
15946;SDS011;8072;52.554;7.966;2023-04-30T04:13:37;6.40;;;4.40;;
15946;SDS011;8072;52.554;7.966;2023-04-30T04:16:11;6.70;;;4.13;;
15946;SDS011;8072;52.554;7.966;2023-04-30T04:18:37;4.87;;;4.37;;
15946;SDS011;8072;52.554;7.966;2023-04-30T04:21:02;5.20;;;3.53;;
15946;SDS011;8072;52.554;7.966;2023-04-30T04:23:28;7.00;;;4.10;;
15946;SDS011;8072;52.554;7.966;2023-04-30T04:25:55;7.87;;;4.23;;
15946;SDS011;8072;52.554;7.966;2023-04-30T04:28:21;7.37;;;4.43;;
15946;SDS011;8072;52.554;7.966;2023-04-30T04:30:47;6.87;;;5.17;;
15946;SDS011;8072;52.554;7.966;2023-04-30T04:33:13;6.50;;;4.40;;
15946;SDS011;8072;52.554;7.966;2023-04-30T04:35:39;5.87;;;4.30;;
15946;SDS011;8072;52.554;7.966;2023-04-30T04:38:05;6.80;;;4.60;;
15946;SDS011;8072;52.554;7.966;2023-04-30T04:40:31;5.07;;;4.57;;
15946;SDS011;8072;52.554;7.966;2023-04-30T04:43:01;7.07;;;4.00;;
15946;SDS011;8072;52.554;7.966;2023-04-30T04:45:27;5.20;;;4.20;;
15946;SDS011;8072;52.554;7.966;2023-04-30T04:47:53;7.97;;;4.23;;
15946;SDS011;8072;52.554;7.966;2023-04-30T04:50:18;5.83;;;4.27;;
15946;SDS011;8072;52.554;7.966;2023-04-30T04:52:45;5.90;;;3.97;;
15946;SDS011;8072;52.554;7.966;2023-04-30T04:55:10;6.03;;;4.30;;
15946;SDS011;8072;52.554;7.966;2023-04-30T04:57:36;5.60;;;4.10;;
15946;SDS011;8072;52.554;7.966;2023-04-30T05:00:02;5.30;;;4.00;;
15946;SDS011;8072;52.554;7.966;2023-04-30T05:02:32;6.23;;;3.93;;
15946;SDS011;8072;52.554;7.966;2023-04-30T05:04:57;5.90;;;4.07;;
15946;SDS011;8072;52.554;7.966;2023-04-30T05:07:23;4.53;;;3.50;;
15946;SDS011;8072;52.554;7.966;2023-04-30T05:09:49;4.83;;;4.33;;
15946;SDS011;8072;52.554;7.966;2023-04-30T05:12:15;5.03;;;4.13;;
15946;SDS011;8072;52.554;7.966;2023-04-30T05:14:41;4.87;;;4.20;;
15946;SDS011;8072;52.554;7.966;2023-04-30T05:17:07;8.20;;;5.47;;
15946;SDS011;8072;52.554;7.966;2023-04-30T05:19:35;7.13;;;5.13;;
15946;SDS011;8072;52.554;7.966;2023-04-30T05:22:01;6.00;;;4.60;;
15946;SDS011;8072;52.554;7.966;2023-04-30T05:24:28;7.63;;;5.40;;
15946;SDS011;8072;52.554;7.966;2023-04-30T05:26:54;7.30;;;5.07;;
15946;SDS011;8072;52.554;7.966;2023-04-30T05:29:20;8.00;;;5.10;;
15946;SDS011;8072;52.554;7.966;2023-04-30T05:31:46;7.37;;;5.33;;
15946;SDS011;8072;52.554;7.966;2023-04-30T05:34:11;10.73;;;5.77;;
15946;SDS011;8072;52.554;7.966;2023-04-30T05:36:37;6.37;;;5.37;;
15946;SDS011;8072;52.554;7.966;2023-04-30T05:39:03;7.13;;;5.83;;
15946;SDS011;8072;52.554;7.966;2023-04-30T05:41:29;11.23;;;7.37;;
15946;SDS011;8072;52.554;7.966;2023-04-30T05:43:55;10.47;;;6.90;;
15946;SDS011;8072;52.554;7.966;2023-04-30T05:46:21;9.33;;;6.47;;
15946;SDS011;8072;52.554;7.966;2023-04-30T05:48:47;13.57;;;7.47;;
15946;SDS011;8072;52.554;7.966;2023-04-30T05:51:12;9.37;;;6.53;;
15946;SDS011;8072;52.554;7.966;2023-04-30T05:53:38;9.57;;;6.27;;
15946;SDS011;8072;52.554;7.966;2023-04-30T05:56:04;13.43;;;6.93;;
15946;SDS011;8072;52.554;7.966;2023-04-30T05:58:30;13.80;;;7.33;;
15946;SDS011;8072;52.554;7.966;2023-04-30T06:00:57;9.07;;;6.70;;
15946;SDS011;8072;52.554;7.966;2023-04-30T06:03:23;14.33;;;6.50;;
15946;SDS011;8072;52.554;7.966;2023-04-30T06:05:49;9.40;;;5.40;;
15946;SDS011;8072;52.554;7.966;2023-04-30T06:08:15;8.67;;;5.67;;
15946;SDS011;8072;52.554;7.966;2023-04-30T06:10:40;12.57;;;5.97;;
15946;SDS011;8072;52.554;7.966;2023-04-30T06:13:06;10.07;;;5.60;;
15946;SDS011;8072;52.554;7.966;2023-04-30T06:15:32;12.17;;;6.47;;
15946;SDS011;8072;52.554;7.966;2023-04-30T06:17:58;12.40;;;5.83;;
15946;SDS011;8072;52.554;7.966;2023-04-30T06:20:23;15.07;;;5.80;;
15946;SDS011;8072;52.554;7.966;2023-04-30T06:22:51;16.00;;;6.00;;
15946;SDS011;8072;52.554;7.966;2023-04-30T06:25:17;9.73;;;5.87;;
15946;SDS011;8072;52.554;7.966;2023-04-30T06:27:44;11.63;;;5.50;;
15946;SDS011;8072;52.554;7.966;2023-04-30T06:30:10;10.37;;;5.47;;
15946;SDS011;8072;52.554;7.966;2023-04-30T06:32:36;9.67;;;5.47;;
15946;SDS011;8072;52.554;7.966;2023-04-30T06:35:02;13.73;;;4.97;;
15946;SDS011;8072;52.554;7.966;2023-04-30T06:37:28;8.77;;;4.53;;
15946;SDS011;8072;52.554;7.966;2023-04-30T06:39:59;10.33;;;3.90;;
15946;SDS011;8072;52.554;7.966;2023-04-30T06:42:25;11.40;;;4.03;;
15946;SDS011;8072;52.554;7.966;2023-04-30T06:44:51;8.17;;;4.67;;
15946;SDS011;8072;52.554;7.966;2023-04-30T06:47:17;13.53;;;4.10;;
15946;SDS011;8072;52.554;7.966;2023-04-30T06:49:43;7.83;;;4.33;;
15946;SDS011;8072;52.554;7.966;2023-04-30T06:52:09;10.00;;;4.53;;
15946;SDS011;8072;52.554;7.966;2023-04-30T06:54:34;9.87;;;4.27;;
15946;SDS011;8072;52.554;7.966;2023-04-30T06:57:00;10.90;;;4.17;;
15946;SDS011;8072;52.554;7.966;2023-04-30T06:59:27;16.13;;;4.80;;
15946;SDS011;8072;52.554;7.966;2023-04-30T07:01:53;11.90;;;4.47;;
15946;SDS011;8072;52.554;7.966;2023-04-30T07:04:19;10.50;;;5.27;;
15946;SDS011;8072;52.554;7.966;2023-04-30T07:06:45;11.07;;;4.83;;
15946;SDS011;8072;52.554;7.966;2023-04-30T07:09:11;11.60;;;4.70;;
15946;SDS011;8072;52.554;7.966;2023-04-30T07:11:36;9.63;;;4.67;;
15946;SDS011;8072;52.554;7.966;2023-04-30T07:14:04;8.23;;;3.97;;
15946;SDS011;8072;52.554;7.966;2023-04-30T07:16:29;13.57;;;4.93;;
15946;SDS011;8072;52.554;7.966;2023-04-30T07:18:56;8.67;;;4.30;;
15946;SDS011;8072;52.554;7.966;2023-04-30T07:21:23;10.57;;;4.30;;
15946;SDS011;8072;52.554;7.966;2023-04-30T07:23:50;11.27;;;4.30;;
15946;SDS011;8072;52.554;7.966;2023-04-30T07:26:16;7.83;;;4.40;;
15946;SDS011;8072;52.554;7.966;2023-04-30T07:28:41;11.03;;;4.90;;
15946;SDS011;8072;52.554;7.966;2023-04-30T07:31:07;9.50;;;4.23;;
15946;SDS011;8072;52.554;7.966;2023-04-30T07:33:33;9.83;;;4.43;;
15946;SDS011;8072;52.554;7.966;2023-04-30T07:35:59;9.10;;;4.20;;
15946;SDS011;8072;52.554;7.966;2023-04-30T07:38:25;11.70;;;4.93;;
15946;SDS011;8072;52.554;7.966;2023-04-30T07:40:51;11.10;;;4.20;;
15946;SDS011;8072;52.554;7.966;2023-04-30T07:43:16;6.97;;;4.00;;
15946;SDS011;8072;52.554;7.966;2023-04-30T07:45:42;10.30;;;4.57;;
15946;SDS011;8072;52.554;7.966;2023-04-30T07:48:08;10.10;;;4.03;;
15946;SDS011;8072;52.554;7.966;2023-04-30T07:50:34;10.23;;;4.07;;
15946;SDS011;8072;52.554;7.966;2023-04-30T07:53:01;11.40;;;4.67;;
15946;SDS011;8072;52.554;7.966;2023-04-30T07:55:27;9.40;;;4.67;;
15946;SDS011;8072;52.554;7.966;2023-04-30T07:57:53;12.17;;;4.20;;
15946;SDS011;8072;52.554;7.966;2023-04-30T08:00:19;15.00;;;4.67;;
15946;SDS011;8072;52.554;7.966;2023-04-30T08:02:45;12.20;;;4.17;;
15946;SDS011;8072;52.554;7.966;2023-04-30T08:05:12;7.17;;;4.20;;
15946;SDS011;8072;52.554;7.966;2023-04-30T08:07:38;11.53;;;4.33;;
15946;SDS011;8072;52.554;7.966;2023-04-30T08:10:05;8.57;;;4.43;;
15946;SDS011;8072;52.554;7.966;2023-04-30T08:12:31;7.73;;;3.80;;
15946;SDS011;8072;52.554;7.966;2023-04-30T08:15:01;9.80;;;3.87;;
15946;SDS011;8072;52.554;7.966;2023-04-30T08:17:28;7.50;;;3.73;;
15946;SDS011;8072;52.554;7.966;2023-04-30T08:19:53;10.97;;;3.87;;
15946;SDS011;8072;52.554;7.966;2023-04-30T08:22:19;11.50;;;3.60;;
15946;SDS011;8072;52.554;7.966;2023-04-30T08:24:45;6.10;;;3.63;;
15946;SDS011;8072;52.554;7.966;2023-04-30T08:27:11;8.83;;;3.23;;
15946;SDS011;8072;52.554;7.966;2023-04-30T08:29:36;6.83;;;3.20;;
15946;SDS011;8072;52.554;7.966;2023-04-30T08:32:02;6.87;;;3.30;;
15946;SDS011;8072;52.554;7.966;2023-04-30T08:34:29;10.37;;;3.43;;
15946;SDS011;8072;52.554;7.966;2023-04-30T08:36:55;7.37;;;4.10;;
15946;SDS011;8072;52.554;7.966;2023-04-30T08:39:21;7.27;;;3.50;;
15946;SDS011;8072;52.554;7.966;2023-04-30T08:41:49;9.63;;;3.60;;
15946;SDS011;8072;52.554;7.966;2023-04-30T08:44:21;10.53;;;3.53;;
15946;SDS011;8072;52.554;7.966;2023-04-30T08:46:51;8.17;;;3.33;;
15946;SDS011;8072;52.554;7.966;2023-04-30T08:49:18;14.07;;;3.57;;
15946;SDS011;8072;52.554;7.966;2023-04-30T08:51:47;8.43;;;3.03;;
15946;SDS011;8072;52.554;7.966;2023-04-30T08:54:14;11.30;;;3.47;;
15946;SDS011;8072;52.554;7.966;2023-04-30T08:56:41;10.53;;;3.50;;
15946;SDS011;8072;52.554;7.966;2023-04-30T08:59:07;9.70;;;3.77;;
15946;SDS011;8072;52.554;7.966;2023-04-30T09:01:33;9.17;;;3.33;;
15946;SDS011;8072;52.554;7.966;2023-04-30T09:03:59;6.73;;;2.90;;
15946;SDS011;8072;52.554;7.966;2023-04-30T09:06:27;8.87;;;3.27;;
15946;SDS011;8072;52.554;7.966;2023-04-30T09:08:53;6.10;;;2.97;;
15946;SDS011;8072;52.554;7.966;2023-04-30T09:11:19;10.13;;;3.47;;
15946;SDS011;8072;52.554;7.966;2023-04-30T09:13:47;12.83;;;3.40;;
15946;SDS011;8072;52.554;7.966;2023-04-30T09:16:21;13.47;;;3.77;;
15946;SDS011;8072;52.554;7.966;2023-04-30T09:18:47;6.27;;;3.47;;
15946;SDS011;8072;52.554;7.966;2023-04-30T09:21:14;9.90;;;3.40;;
15946;SDS011;8072;52.554;7.966;2023-04-30T09:24:02;8.10;;;3.50;;
15946;SDS011;8072;52.554;7.966;2023-04-30T09:26:30;9.73;;;3.43;;
15946;SDS011;8072;52.554;7.966;2023-04-30T09:28:58;9.30;;;3.60;;
15946;SDS011;8072;52.554;7.966;2023-04-30T09:31:25;11.93;;;4.03;;
15946;SDS011;8072;52.554;7.966;2023-04-30T09:33:51;8.43;;;4.03;;
15946;SDS011;8072;52.554;7.966;2023-04-30T09:36:18;10.90;;;4.67;;
15946;SDS011;8072;52.554;7.966;2023-04-30T09:38:44;9.27;;;3.70;;
15946;SDS011;8072;52.554;7.966;2023-04-30T09:41:20;11.17;;;3.73;;
15946;SDS011;8072;52.554;7.966;2023-04-30T09:43:54;13.47;;;3.70;;
15946;SDS011;8072;52.554;7.966;2023-04-30T09:46:21;6.93;;;3.50;;
15946;SDS011;8072;52.554;7.966;2023-04-30T09:48:55;7.77;;;3.70;;
15946;SDS011;8072;52.554;7.966;2023-04-30T09:51:22;10.40;;;4.20;;
15946;SDS011;8072;52.554;7.966;2023-04-30T09:53:48;8.77;;;3.53;;
15946;SDS011;8072;52.554;7.966;2023-04-30T09:56:18;10.03;;;3.80;;
15946;SDS011;8072;52.554;7.966;2023-04-30T09:58:47;7.97;;;4.77;;
15946;SDS011;8072;52.554;7.966;2023-04-30T10:01:19;8.97;;;3.40;;
15946;SDS011;8072;52.554;7.966;2023-04-30T10:03:46;9.43;;;3.67;;
15946;SDS011;8072;52.554;7.966;2023-04-30T10:06:13;7.47;;;3.83;;
15946;SDS011;8072;52.554;7.966;2023-04-30T10:08:43;11.10;;;4.00;;
15946;SDS011;8072;52.554;7.966;2023-04-30T10:11:19;12.03;;;4.10;;
15946;SDS011;8072;52.554;7.966;2023-04-30T10:16:42;15.13;;;3.80;;
15946;SDS011;8072;52.554;7.966;2023-04-30T10:19:13;10.43;;;4.63;;
15946;SDS011;8072;52.554;7.966;2023-04-30T10:21:59;5.97;;;3.40;;
15946;SDS011;8072;52.554;7.966;2023-04-30T10:24:26;9.60;;;4.07;;
15946;SDS011;8072;52.554;7.966;2023-04-30T10:26:52;9.13;;;3.87;;
15946;SDS011;8072;52.554;7.966;2023-04-30T10:29:21;6.57;;;3.33;;
15946;SDS011;8072;52.554;7.966;2023-04-30T10:31:48;11.00;;;3.63;;
15946;SDS011;8072;52.554;7.966;2023-04-30T10:36:59;8.33;;;4.00;;
15946;SDS011;8072;52.554;7.966;2023-04-30T10:39:31;8.27;;;3.77;;
15946;SDS011;8072;52.554;7.966;2023-04-30T10:42:00;10.37;;;3.90;;
15946;SDS011;8072;52.554;7.966;2023-04-30T10:44:34;9.37;;;3.63;;
15946;SDS011;8072;52.554;7.966;2023-04-30T10:47:02;7.93;;;3.17;;
15946;SDS011;8072;52.554;7.966;2023-04-30T10:49:32;8.17;;;3.93;;
15946;SDS011;8072;52.554;7.966;2023-04-30T10:51:59;8.30;;;3.70;;
15946;SDS011;8072;52.554;7.966;2023-04-30T10:54:28;8.57;;;3.60;;
15946;SDS011;8072;52.554;7.966;2023-04-30T10:57:14;9.97;;;3.83;;
15946;SDS011;8072;52.554;7.966;2023-04-30T10:59:50;8.63;;;3.23;;
15946;SDS011;8072;52.554;7.966;2023-04-30T11:02:18;10.27;;;3.83;;
15946;SDS011;8072;52.554;7.966;2023-04-30T11:05:44;7.60;;;3.00;;
15946;SDS011;8072;52.554;7.966;2023-04-30T11:07:48;6.80;;;3.30;;
15946;SDS011;8072;52.554;7.966;2023-04-30T11:10:15;10.17;;;3.60;;
15946;SDS011;8072;52.554;7.966;2023-04-30T11:12:48;9.33;;;3.73;;
15946;SDS011;8072;52.554;7.966;2023-04-30T11:15:16;8.43;;;3.40;;
15946;SDS011;8072;52.554;7.966;2023-04-30T11:17:44;9.30;;;3.17;;
15946;SDS011;8072;52.554;7.966;2023-04-30T11:20:12;8.00;;;3.40;;
15946;SDS011;8072;52.554;7.966;2023-04-30T11:22:43;11.47;;;3.00;;
15946;SDS011;8072;52.554;7.966;2023-04-30T11:25:10;7.40;;;2.90;;
15946;SDS011;8072;52.554;7.966;2023-04-30T11:27:41;10.63;;;3.70;;
15946;SDS011;8072;52.554;7.966;2023-04-30T11:30:12;8.40;;;3.20;;
15946;SDS011;8072;52.554;7.966;2023-04-30T11:32:40;6.17;;;3.30;;
15946;SDS011;8072;52.554;7.966;2023-04-30T11:35:11;8.23;;;3.40;;
15946;SDS011;8072;52.554;7.966;2023-04-30T11:37:38;11.13;;;3.70;;
15946;SDS011;8072;52.554;7.966;2023-04-30T11:40:08;6.93;;;3.03;;
15946;SDS011;8072;52.554;7.966;2023-04-30T11:42:39;8.57;;;3.33;;
15946;SDS011;8072;52.554;7.966;2023-04-30T11:45:09;7.23;;;3.30;;
15946;SDS011;8072;52.554;7.966;2023-04-30T11:47:46;5.47;;;3.23;;
15946;SDS011;8072;52.554;7.966;2023-04-30T11:50:18;6.20;;;3.10;;
15946;SDS011;8072;52.554;7.966;2023-04-30T11:52:57;5.40;;;2.80;;
15946;SDS011;8072;52.554;7.966;2023-04-30T11:55:27;7.53;;;3.87;;
15946;SDS011;8072;52.554;7.966;2023-04-30T11:57:56;8.00;;;3.20;;
15946;SDS011;8072;52.554;7.966;2023-04-30T12:00:30;7.33;;;3.70;;
15946;SDS011;8072;52.554;7.966;2023-04-30T12:02:59;8.53;;;3.57;;
15946;SDS011;8072;52.554;7.966;2023-04-30T12:05:27;7.67;;;3.80;;
15946;SDS011;8072;52.554;7.966;2023-04-30T12:07:56;6.20;;;3.30;;
15946;SDS011;8072;52.554;7.966;2023-04-30T12:10:24;7.50;;;3.20;;
15946;SDS011;8072;52.554;7.966;2023-04-30T12:12:51;7.28;;;3.33;;
15946;SDS011;8072;52.554;7.966;2023-04-30T12:15:20;7.03;;;3.33;;
15946;SDS011;8072;52.554;7.966;2023-04-30T12:17:50;6.13;;;3.63;;
15946;SDS011;8072;52.554;7.966;2023-04-30T12:20:16;6.33;;;3.23;;
15946;SDS011;8072;52.554;7.966;2023-04-30T12:22:42;8.27;;;3.30;;
15946;SDS011;8072;52.554;7.966;2023-04-30T12:25:13;6.50;;;3.30;;
15946;SDS011;8072;52.554;7.966;2023-04-30T12:27:40;6.20;;;3.80;;
15946;SDS011;8072;52.554;7.966;2023-04-30T12:30:09;7.18;;;3.63;;
15946;SDS011;8072;52.554;7.966;2023-04-30T12:32:36;7.03;;;3.20;;
15946;SDS011;8072;52.554;7.966;2023-04-30T12:35:03;4.63;;;2.70;;
15946;SDS011;8072;52.554;7.966;2023-04-30T12:37:30;5.90;;;3.50;;
15946;SDS011;8072;52.554;7.966;2023-04-30T12:39:56;8.30;;;2.92;;
15946;SDS011;8072;52.554;7.966;2023-04-30T12:42:22;7.15;;;3.33;;
15946;SDS011;8072;52.554;7.966;2023-04-30T12:44:49;5.75;;;3.03;;
15946;SDS011;8072;52.554;7.966;2023-04-30T12:47:14;7.78;;;3.30;;
15946;SDS011;8072;52.554;7.966;2023-04-30T12:49:40;7.25;;;3.42;;
15946;SDS011;8072;52.554;7.966;2023-04-30T12:52:10;10.45;;;3.05;;
15946;SDS011;8072;52.554;7.966;2023-04-30T12:54:37;10.23;;;3.92;;
15946;SDS011;8072;52.554;7.966;2023-04-30T12:57:05;8.27;;;2.88;;
15946;SDS011;8072;52.554;7.966;2023-04-30T12:59:33;5.47;;;2.55;;
15946;SDS011;8072;52.554;7.966;2023-04-30T13:04:34;4.28;;;2.47;;
15946;SDS011;8072;52.554;7.966;2023-04-30T13:07:01;6.90;;;2.65;;
15946;SDS011;8072;52.554;7.966;2023-04-30T13:09:27;7.75;;;2.80;;
15946;SDS011;8072;52.554;7.966;2023-04-30T13:11:53;7.30;;;2.97;;
15946;SDS011;8072;52.554;7.966;2023-04-30T13:14:19;4.85;;;2.53;;
15946;SDS011;8072;52.554;7.966;2023-04-30T13:16:45;6.78;;;2.83;;
15946;SDS011;8072;52.554;7.966;2023-04-30T13:19:11;8.63;;;2.90;;
15946;SDS011;8072;52.554;7.966;2023-04-30T13:21:37;4.53;;;2.30;;
15946;SDS011;8072;52.554;7.966;2023-04-30T13:24:03;4.75;;;2.00;;
15946;SDS011;8072;52.554;7.966;2023-04-30T13:26:29;4.90;;;2.30;;
15946;SDS011;8072;52.554;7.966;2023-04-30T13:28:55;6.40;;;2.20;;
15946;SDS011;8072;52.554;7.966;2023-04-30T13:31:20;4.00;;;2.22;;
15946;SDS011;8072;52.554;7.966;2023-04-30T13:33:47;6.00;;;2.10;;
15946;SDS011;8072;52.554;7.966;2023-04-30T13:36:13;5.43;;;2.40;;
15946;SDS011;8072;52.554;7.966;2023-04-30T13:38:39;6.35;;;2.40;;
15946;SDS011;8072;52.554;7.966;2023-04-30T13:41:05;5.32;;;2.28;;
15946;SDS011;8072;52.554;7.966;2023-04-30T13:43:31;5.40;;;1.92;;
15946;SDS011;8072;52.554;7.966;2023-04-30T13:45:57;4.47;;;2.20;;
15946;SDS011;8072;52.554;7.966;2023-04-30T13:48:23;4.75;;;2.10;;
15946;SDS011;8072;52.554;7.966;2023-04-30T13:50:50;5.07;;;1.95;;
15946;SDS011;8072;52.554;7.966;2023-04-30T13:53:16;5.88;;;2.05;;
15946;SDS011;8072;52.554;7.966;2023-04-30T13:55:42;5.75;;;2.40;;
15946;SDS011;8072;52.554;7.966;2023-04-30T13:58:08;7.38;;;2.45;;
15946;SDS011;8072;52.554;7.966;2023-04-30T14:00:34;7.40;;;2.72;;
15946;SDS011;8072;52.554;7.966;2023-04-30T14:02:59;5.65;;;2.40;;
15946;SDS011;8072;52.554;7.966;2023-04-30T14:05:25;5.90;;;2.35;;
15946;SDS011;8072;52.554;7.966;2023-04-30T14:07:51;7.40;;;2.80;;
15946;SDS011;8072;52.554;7.966;2023-04-30T14:10:17;5.57;;;2.33;;
15946;SDS011;8072;52.554;7.966;2023-04-30T14:12:43;4.35;;;2.83;;
15946;SDS011;8072;52.554;7.966;2023-04-30T14:15:09;3.88;;;2.42;;
15946;SDS011;8072;52.554;7.966;2023-04-30T14:17:35;5.07;;;2.20;;
15946;SDS011;8072;52.554;7.966;2023-04-30T14:20:00;7.55;;;2.38;;
15946;SDS011;8072;52.554;7.966;2023-04-30T14:22:26;4.65;;;2.00;;
15946;SDS011;8072;52.554;7.966;2023-04-30T14:24:52;7.05;;;3.05;;
15946;SDS011;8072;52.554;7.966;2023-04-30T14:27:18;4.55;;;1.90;;
15946;SDS011;8072;52.554;7.966;2023-04-30T14:29:44;5.00;;;2.00;;
15946;SDS011;8072;52.554;7.966;2023-04-30T14:32:11;4.75;;;2.38;;
15946;SDS011;8072;52.554;7.966;2023-04-30T14:34:38;4.00;;;2.20;;
15946;SDS011;8072;52.554;7.966;2023-04-30T14:37:04;6.82;;;2.83;;
15946;SDS011;8072;52.554;7.966;2023-04-30T14:39:30;5.00;;;1.90;;
15946;SDS011;8072;52.554;7.966;2023-04-30T14:41:55;4.20;;;1.85;;
15946;SDS011;8072;52.554;7.966;2023-04-30T14:44:22;4.00;;;2.20;;
15946;SDS011;8072;52.554;7.966;2023-04-30T14:46:49;3.15;;;1.90;;
15946;SDS011;8072;52.554;7.966;2023-04-30T14:49:15;5.15;;;2.15;;
15946;SDS011;8072;52.554;7.966;2023-04-30T14:51:41;4.65;;;1.98;;
15946;SDS011;8072;52.554;7.966;2023-04-30T14:54:07;5.47;;;2.10;;
15946;SDS011;8072;52.554;7.966;2023-04-30T14:56:33;3.78;;;2.05;;
15946;SDS011;8072;52.554;7.966;2023-04-30T14:58:59;3.92;;;1.60;;
15946;SDS011;8072;52.554;7.966;2023-04-30T15:01:25;7.50;;;2.20;;
15946;SDS011;8072;52.554;7.966;2023-04-30T15:03:51;3.22;;;1.83;;
15946;SDS011;8072;52.554;7.966;2023-04-30T15:06:17;5.22;;;1.98;;
15946;SDS011;8072;52.554;7.966;2023-04-30T15:08:43;5.90;;;2.17;;
15946;SDS011;8072;52.554;7.966;2023-04-30T15:11:09;4.57;;;1.88;;
15946;SDS011;8072;52.554;7.966;2023-04-30T15:13:37;5.35;;;2.58;;
15946;SDS011;8072;52.554;7.966;2023-04-30T15:16:04;3.17;;;1.70;;
15946;SDS011;8072;52.554;7.966;2023-04-30T15:18:30;8.15;;;2.20;;
15946;SDS011;8072;52.554;7.966;2023-04-30T15:20:57;4.07;;;1.77;;
15946;SDS011;8072;52.554;7.966;2023-04-30T15:23:22;3.55;;;1.77;;